sensor_id;sensor_type;location;lat;lon;timestamp;P1;durP1;ratioP1;P2;durP2;ratioP2
14975;SDS011;7584;60.468;25.126;2023-01-19T00:00:35;16.07;;;5.33;;
14975;SDS011;7584;60.468;25.126;2023-01-19T00:03:02;18.20;;;5.90;;
14975;SDS011;7584;60.468;25.126;2023-01-19T00:05:27;9.03;;;4.53;;
14975;SDS011;7584;60.468;25.126;2023-01-19T00:07:52;10.37;;;4.67;;
14975;SDS011;7584;60.468;25.126;2023-01-19T00:10:18;12.37;;;4.73;;
14975;SDS011;7584;60.468;25.126;2023-01-19T00:12:43;12.47;;;4.83;;
14975;SDS011;7584;60.468;25.126;2023-01-19T00:15:08;13.30;;;5.47;;
14975;SDS011;7584;60.468;25.126;2023-01-19T00:17:34;10.13;;;4.37;;
14975;SDS011;7584;60.468;25.126;2023-01-19T00:19:59;9.97;;;4.70;;
14975;SDS011;7584;60.468;25.126;2023-01-19T00:22:24;24.93;;;8.53;;
14975;SDS011;7584;60.468;25.126;2023-01-19T00:24:50;17.37;;;5.80;;
14975;SDS011;7584;60.468;25.126;2023-01-19T00:27:15;13.13;;;5.83;;
14975;SDS011;7584;60.468;25.126;2023-01-19T00:29:40;14.40;;;5.10;;
14975;SDS011;7584;60.468;25.126;2023-01-19T00:32:06;13.90;;;5.03;;
14975;SDS011;7584;60.468;25.126;2023-01-19T00:34:31;17.67;;;5.13;;
14975;SDS011;7584;60.468;25.126;2023-01-19T00:37:03;13.87;;;4.87;;
14975;SDS011;7584;60.468;25.126;2023-01-19T00:39:29;16.00;;;6.23;;
14975;SDS011;7584;60.468;25.126;2023-01-19T00:41:54;12.33;;;4.43;;
14975;SDS011;7584;60.468;25.126;2023-01-19T00:44:38;12.33;;;5.20;;
14975;SDS011;7584;60.468;25.126;2023-01-19T00:47:03;16.20;;;5.57;;
14975;SDS011;7584;60.468;25.126;2023-01-19T00:49:29;16.50;;;5.37;;
14975;SDS011;7584;60.468;25.126;2023-01-19T00:51:55;16.87;;;6.10;;
14975;SDS011;7584;60.468;25.126;2023-01-19T00:54:20;9.47;;;4.77;;
14975;SDS011;7584;60.468;25.126;2023-01-19T00:56:45;17.53;;;6.17;;
14975;SDS011;7584;60.468;25.126;2023-01-19T00:59:10;8.90;;;5.53;;
14975;SDS011;7584;60.468;25.126;2023-01-19T01:01:36;19.67;;;5.47;;
14975;SDS011;7584;60.468;25.126;2023-01-19T01:04:01;14.30;;;6.03;;
14975;SDS011;7584;60.468;25.126;2023-01-19T01:06:27;14.93;;;5.20;;
14975;SDS011;7584;60.468;25.126;2023-01-19T01:08:52;12.10;;;6.20;;
14975;SDS011;7584;60.468;25.126;2023-01-19T01:11:17;11.73;;;5.40;;
14975;SDS011;7584;60.468;25.126;2023-01-19T01:13:43;10.63;;;5.33;;
14975;SDS011;7584;60.468;25.126;2023-01-19T01:16:08;10.47;;;5.97;;
14975;SDS011;7584;60.468;25.126;2023-01-19T01:18:33;12.10;;;6.07;;
14975;SDS011;7584;60.468;25.126;2023-01-19T01:21:00;9.57;;;5.57;;
14975;SDS011;7584;60.468;25.126;2023-01-19T01:23:25;10.30;;;5.77;;
14975;SDS011;7584;60.468;25.126;2023-01-19T01:25:51;10.37;;;5.43;;
14975;SDS011;7584;60.468;25.126;2023-01-19T01:28:16;10.47;;;5.23;;
14975;SDS011;7584;60.468;25.126;2023-01-19T01:30:41;9.37;;;5.17;;
14975;SDS011;7584;60.468;25.126;2023-01-19T01:33:08;11.07;;;5.20;;
14975;SDS011;7584;60.468;25.126;2023-01-19T01:35:33;11.23;;;5.37;;
14975;SDS011;7584;60.468;25.126;2023-01-19T01:37:59;10.00;;;5.47;;
14975;SDS011;7584;60.468;25.126;2023-01-19T01:40:25;11.70;;;5.33;;
14975;SDS011;7584;60.468;25.126;2023-01-19T01:42:50;8.63;;;5.07;;
14975;SDS011;7584;60.468;25.126;2023-01-19T01:45:32;8.67;;;5.27;;
14975;SDS011;7584;60.468;25.126;2023-01-19T01:48:02;7.37;;;4.57;;
14975;SDS011;7584;60.468;25.126;2023-01-19T01:50:29;8.67;;;4.63;;
14975;SDS011;7584;60.468;25.126;2023-01-19T01:52:58;7.03;;;4.40;;
14975;SDS011;7584;60.468;25.126;2023-01-19T01:55:25;10.23;;;4.50;;
14975;SDS011;7584;60.468;25.126;2023-01-19T01:57:55;7.03;;;4.27;;
14975;SDS011;7584;60.468;25.126;2023-01-19T02:00:22;7.50;;;4.03;;
14975;SDS011;7584;60.468;25.126;2023-01-19T02:02:48;6.47;;;4.40;;
14975;SDS011;7584;60.468;25.126;2023-01-19T02:07:45;5.63;;;3.83;;
14975;SDS011;7584;60.468;25.126;2023-01-19T02:10:30;5.70;;;3.57;;
14975;SDS011;7584;60.468;25.126;2023-01-19T02:13:14;7.97;;;4.07;;
14975;SDS011;7584;60.468;25.126;2023-01-19T02:15:46;8.27;;;4.03;;
14975;SDS011;7584;60.468;25.126;2023-01-19T02:18:12;6.43;;;4.17;;
14975;SDS011;7584;60.468;25.126;2023-01-19T02:20:38;8.43;;;3.87;;
14975;SDS011;7584;60.468;25.126;2023-01-19T02:23:06;4.63;;;3.20;;
14975;SDS011;7584;60.468;25.126;2023-01-19T02:25:36;6.23;;;3.57;;
14975;SDS011;7584;60.468;25.126;2023-01-19T02:28:01;5.93;;;3.53;;
14975;SDS011;7584;60.468;25.126;2023-01-19T02:30:27;4.43;;;2.93;;
14975;SDS011;7584;60.468;25.126;2023-01-19T02:32:52;7.17;;;3.63;;
14975;SDS011;7584;60.468;25.126;2023-01-19T02:35:18;6.27;;;3.73;;
14975;SDS011;7584;60.468;25.126;2023-01-19T02:37:44;4.80;;;3.37;;
14975;SDS011;7584;60.468;25.126;2023-01-19T02:40:10;5.00;;;3.30;;
14975;SDS011;7584;60.468;25.126;2023-01-19T02:42:38;4.53;;;2.77;;
14975;SDS011;7584;60.468;25.126;2023-01-19T02:45:07;5.87;;;2.90;;
14975;SDS011;7584;60.468;25.126;2023-01-19T02:47:44;5.23;;;3.13;;
14975;SDS011;7584;60.468;25.126;2023-01-19T02:52:54;4.23;;;3.30;;
14975;SDS011;7584;60.468;25.126;2023-01-19T02:55:21;6.10;;;2.40;;
14975;SDS011;7584;60.468;25.126;2023-01-19T02:57:55;5.73;;;3.00;;
14975;SDS011;7584;60.468;25.126;2023-01-19T03:05:54;3.47;;;2.20;;
14975;SDS011;7584;60.468;25.126;2023-01-19T03:10:56;6.33;;;2.80;;
14975;SDS011;7584;60.468;25.126;2023-01-19T03:18:48;4.30;;;2.40;;
14975;SDS011;7584;60.468;25.126;2023-01-19T03:21:15;3.83;;;2.60;;
14975;SDS011;7584;60.468;25.126;2023-01-19T03:23:43;3.23;;;2.50;;
14975;SDS011;7584;60.468;25.126;2023-01-19T03:26:10;3.53;;;2.20;;
14975;SDS011;7584;60.468;25.126;2023-01-19T03:28:37;3.90;;;2.20;;
14975;SDS011;7584;60.468;25.126;2023-01-19T03:31:05;2.50;;;1.83;;
14975;SDS011;7584;60.468;25.126;2023-01-19T03:33:32;2.97;;;2.33;;
14975;SDS011;7584;60.468;25.126;2023-01-19T03:36:02;3.27;;;2.20;;
14975;SDS011;7584;60.468;25.126;2023-01-19T03:38:30;2.97;;;2.00;;
14975;SDS011;7584;60.468;25.126;2023-01-19T03:40:57;4.67;;;2.10;;
14975;SDS011;7584;60.468;25.126;2023-01-19T03:43:24;3.37;;;2.30;;
14975;SDS011;7584;60.468;25.126;2023-01-19T03:45:50;4.47;;;2.40;;
14975;SDS011;7584;60.468;25.126;2023-01-19T03:48:16;2.97;;;2.33;;
14975;SDS011;7584;60.468;25.126;2023-01-19T03:50:41;3.10;;;2.07;;
14975;SDS011;7584;60.468;25.126;2023-01-19T03:53:11;3.20;;;2.30;;
14975;SDS011;7584;60.468;25.126;2023-01-19T03:55:37;7.60;;;2.33;;
14975;SDS011;7584;60.468;25.126;2023-01-19T03:58:03;2.73;;;1.90;;
14975;SDS011;7584;60.468;25.126;2023-01-19T04:00:29;3.50;;;2.07;;
14975;SDS011;7584;60.468;25.126;2023-01-19T04:02:54;5.87;;;2.07;;
14975;SDS011;7584;60.468;25.126;2023-01-19T04:05:20;3.20;;;1.90;;
14975;SDS011;7584;60.468;25.126;2023-01-19T04:07:47;3.60;;;1.93;;
14975;SDS011;7584;60.468;25.126;2023-01-19T04:10:12;3.67;;;2.10;;
14975;SDS011;7584;60.468;25.126;2023-01-19T04:12:38;3.23;;;1.90;;
14975;SDS011;7584;60.468;25.126;2023-01-19T04:15:04;2.30;;;1.77;;
14975;SDS011;7584;60.468;25.126;2023-01-19T04:17:30;3.63;;;2.40;;
14975;SDS011;7584;60.468;25.126;2023-01-19T04:19:55;2.53;;;1.87;;
14975;SDS011;7584;60.468;25.126;2023-01-19T04:22:21;3.37;;;1.80;;
14975;SDS011;7584;60.468;25.126;2023-01-19T04:24:46;3.53;;;1.30;;
14975;SDS011;7584;60.468;25.126;2023-01-19T04:27:11;2.10;;;1.50;;
14975;SDS011;7584;60.468;25.126;2023-01-19T04:29:38;2.93;;;1.73;;
14975;SDS011;7584;60.468;25.126;2023-01-19T04:32:04;2.80;;;1.70;;
14975;SDS011;7584;60.468;25.126;2023-01-19T04:34:29;2.57;;;1.93;;
14975;SDS011;7584;60.468;25.126;2023-01-19T04:36:54;3.40;;;1.60;;
14975;SDS011;7584;60.468;25.126;2023-01-19T04:39:20;1.93;;;1.53;;
14975;SDS011;7584;60.468;25.126;2023-01-19T04:41:45;2.33;;;1.40;;
14975;SDS011;7584;60.468;25.126;2023-01-19T04:44:10;2.13;;;1.20;;
14975;SDS011;7584;60.468;25.126;2023-01-19T04:46:36;1.83;;;1.10;;
14975;SDS011;7584;60.468;25.126;2023-01-19T04:49:01;1.30;;;1.00;;
14975;SDS011;7584;60.468;25.126;2023-01-19T04:51:26;1.27;;;1.00;;
14975;SDS011;7584;60.468;25.126;2023-01-19T04:53:52;1.00;;;0.90;;
14975;SDS011;7584;60.468;25.126;2023-01-19T04:56:18;3.93;;;1.00;;
14975;SDS011;7584;60.468;25.126;2023-01-19T04:58:43;1.47;;;1.00;;
14975;SDS011;7584;60.468;25.126;2023-01-19T05:01:08;1.30;;;1.00;;
14975;SDS011;7584;60.468;25.126;2023-01-19T05:03:34;1.27;;;0.93;;
14975;SDS011;7584;60.468;25.126;2023-01-19T05:05:59;1.50;;;0.90;;
14975;SDS011;7584;60.468;25.126;2023-01-19T05:08:24;1.13;;;0.90;;
14975;SDS011;7584;60.468;25.126;2023-01-19T05:10:49;1.20;;;1.00;;
14975;SDS011;7584;60.468;25.126;2023-01-19T05:13:15;2.50;;;1.10;;
14975;SDS011;7584;60.468;25.126;2023-01-19T05:15:40;3.70;;;1.10;;
14975;SDS011;7584;60.468;25.126;2023-01-19T05:18:05;1.97;;;0.93;;
14975;SDS011;7584;60.468;25.126;2023-01-19T05:20:31;2.03;;;0.80;;
14975;SDS011;7584;60.468;25.126;2023-01-19T05:22:56;2.70;;;1.00;;
14975;SDS011;7584;60.468;25.126;2023-01-19T05:25:21;1.23;;;0.80;;
14975;SDS011;7584;60.468;25.126;2023-01-19T05:27:47;1.43;;;1.10;;
14975;SDS011;7584;60.468;25.126;2023-01-19T05:30:12;2.57;;;1.30;;
14975;SDS011;7584;60.468;25.126;2023-01-19T05:32:37;1.00;;;0.80;;
14975;SDS011;7584;60.468;25.126;2023-01-19T05:35:03;2.90;;;0.90;;
14975;SDS011;7584;60.468;25.126;2023-01-19T05:37:28;1.00;;;0.73;;
14975;SDS011;7584;60.468;25.126;2023-01-19T05:39:53;1.63;;;1.17;;
14975;SDS011;7584;60.468;25.126;2023-01-19T05:42:19;2.70;;;1.10;;
14975;SDS011;7584;60.468;25.126;2023-01-19T05:44:44;1.30;;;0.83;;
14975;SDS011;7584;60.468;25.126;2023-01-19T05:47:10;2.07;;;1.00;;
14975;SDS011;7584;60.468;25.126;2023-01-19T05:49:35;0.97;;;0.70;;
14975;SDS011;7584;60.468;25.126;2023-01-19T05:52:01;2.00;;;0.80;;
14975;SDS011;7584;60.468;25.126;2023-01-19T05:54:26;2.13;;;0.80;;
14975;SDS011;7584;60.468;25.126;2023-01-19T05:56:51;2.30;;;1.10;;
14975;SDS011;7584;60.468;25.126;2023-01-19T05:59:17;2.50;;;1.00;;
14975;SDS011;7584;60.468;25.126;2023-01-19T06:01:47;2.27;;;0.83;;
14975;SDS011;7584;60.468;25.126;2023-01-19T06:04:13;1.10;;;0.77;;
14975;SDS011;7584;60.468;25.126;2023-01-19T06:06:38;1.70;;;0.93;;
14975;SDS011;7584;60.468;25.126;2023-01-19T06:09:03;3.40;;;0.83;;
14975;SDS011;7584;60.468;25.126;2023-01-19T06:11:29;0.60;;;0.60;;
14975;SDS011;7584;60.468;25.126;2023-01-19T06:13:54;1.80;;;0.93;;
14975;SDS011;7584;60.468;25.126;2023-01-19T06:16:20;1.53;;;1.13;;
14975;SDS011;7584;60.468;25.126;2023-01-19T06:18:45;1.93;;;1.50;;
14975;SDS011;7584;60.468;25.126;2023-01-19T06:21:10;1.20;;;0.73;;
14975;SDS011;7584;60.468;25.126;2023-01-19T06:23:38;2.67;;;1.00;;
14975;SDS011;7584;60.468;25.126;2023-01-19T06:26:03;1.93;;;1.00;;
14975;SDS011;7584;60.468;25.126;2023-01-19T06:28:28;1.00;;;0.90;;
14975;SDS011;7584;60.468;25.126;2023-01-19T06:30:54;3.80;;;0.97;;
14975;SDS011;7584;60.468;25.126;2023-01-19T06:33:20;1.33;;;0.90;;
14975;SDS011;7584;60.468;25.126;2023-01-19T06:35:45;1.93;;;0.83;;
14975;SDS011;7584;60.468;25.126;2023-01-19T06:38:11;1.33;;;0.80;;
14975;SDS011;7584;60.468;25.126;2023-01-19T06:40:41;0.90;;;0.70;;
14975;SDS011;7584;60.468;25.126;2023-01-19T06:43:06;1.30;;;0.80;;
14975;SDS011;7584;60.468;25.126;2023-01-19T06:45:32;1.00;;;0.63;;
14975;SDS011;7584;60.468;25.126;2023-01-19T06:47:57;0.60;;;0.60;;
14975;SDS011;7584;60.468;25.126;2023-01-19T06:50:22;0.70;;;0.60;;
14975;SDS011;7584;60.468;25.126;2023-01-19T06:52:48;1.23;;;0.90;;
14975;SDS011;7584;60.468;25.126;2023-01-19T06:55:14;0.80;;;0.67;;
14975;SDS011;7584;60.468;25.126;2023-01-19T06:57:40;1.20;;;1.00;;
14975;SDS011;7584;60.468;25.126;2023-01-19T07:00:05;1.57;;;1.13;;
14975;SDS011;7584;60.468;25.126;2023-01-19T07:02:33;1.40;;;0.80;;
14975;SDS011;7584;60.468;25.126;2023-01-19T07:04:59;2.07;;;1.17;;
14975;SDS011;7584;60.468;25.126;2023-01-19T07:07:24;2.30;;;1.33;;
14975;SDS011;7584;60.468;25.126;2023-01-19T07:09:49;1.70;;;0.87;;
14975;SDS011;7584;60.468;25.126;2023-01-19T07:12:15;1.10;;;0.93;;
14975;SDS011;7584;60.468;25.126;2023-01-19T07:14:40;3.67;;;0.97;;
14975;SDS011;7584;60.468;25.126;2023-01-19T07:17:05;1.40;;;0.73;;
14975;SDS011;7584;60.468;25.126;2023-01-19T07:19:31;1.63;;;0.80;;
14975;SDS011;7584;60.468;25.126;2023-01-19T07:21:58;1.63;;;0.93;;
14975;SDS011;7584;60.468;25.126;2023-01-19T07:24:24;1.20;;;0.80;;
14975;SDS011;7584;60.468;25.126;2023-01-19T07:26:49;1.00;;;0.60;;
14975;SDS011;7584;60.468;25.126;2023-01-19T07:29:15;1.10;;;0.73;;
14975;SDS011;7584;60.468;25.126;2023-01-19T07:31:40;1.37;;;0.80;;
14975;SDS011;7584;60.468;25.126;2023-01-19T07:34:05;1.43;;;0.63;;
14975;SDS011;7584;60.468;25.126;2023-01-19T07:36:31;1.10;;;0.80;;
14975;SDS011;7584;60.468;25.126;2023-01-19T07:38:56;2.17;;;0.87;;
14975;SDS011;7584;60.468;25.126;2023-01-19T07:41:22;0.80;;;0.80;;
14975;SDS011;7584;60.468;25.126;2023-01-19T07:43:47;1.77;;;0.87;;
14975;SDS011;7584;60.468;25.126;2023-01-19T07:46:15;2.90;;;0.90;;
14975;SDS011;7584;60.468;25.126;2023-01-19T07:48:40;1.23;;;1.00;;
14975;SDS011;7584;60.468;25.126;2023-01-19T07:51:08;1.70;;;0.87;;
14975;SDS011;7584;60.468;25.126;2023-01-19T07:53:36;4.90;;;1.00;;
14975;SDS011;7584;60.468;25.126;2023-01-19T07:56:01;2.03;;;1.17;;
14975;SDS011;7584;60.468;25.126;2023-01-19T07:58:26;1.40;;;0.93;;
14975;SDS011;7584;60.468;25.126;2023-01-19T08:00:52;1.57;;;1.17;;
14975;SDS011;7584;60.468;25.126;2023-01-19T08:03:17;2.73;;;1.30;;
14975;SDS011;7584;60.468;25.126;2023-01-19T08:05:43;6.67;;;1.70;;
14975;SDS011;7584;60.468;25.126;2023-01-19T08:08:08;5.53;;;1.60;;
14975;SDS011;7584;60.468;25.126;2023-01-19T08:10:35;2.40;;;1.40;;
14975;SDS011;7584;60.468;25.126;2023-01-19T08:13:00;2.67;;;1.63;;
14975;SDS011;7584;60.468;25.126;2023-01-19T08:15:26;2.70;;;1.17;;
14975;SDS011;7584;60.468;25.126;2023-01-19T08:20:20;1.47;;;1.20;;
14975;SDS011;7584;60.468;25.126;2023-01-19T08:22:47;4.27;;;1.27;;
14975;SDS011;7584;60.468;25.126;2023-01-19T08:25:12;1.67;;;1.13;;
14975;SDS011;7584;60.468;25.126;2023-01-19T08:27:37;1.50;;;1.30;;
14975;SDS011;7584;60.468;25.126;2023-01-19T08:30:03;1.17;;;1.07;;
14975;SDS011;7584;60.468;25.126;2023-01-19T08:32:28;1.77;;;1.20;;
14975;SDS011;7584;60.468;25.126;2023-01-19T08:34:53;2.77;;;1.20;;
14975;SDS011;7584;60.468;25.126;2023-01-19T08:37:19;1.27;;;1.17;;
14975;SDS011;7584;60.468;25.126;2023-01-19T08:39:44;1.03;;;0.93;;
14975;SDS011;7584;60.468;25.126;2023-01-19T08:42:09;3.17;;;1.13;;
14975;SDS011;7584;60.468;25.126;2023-01-19T08:44:34;1.47;;;1.20;;
14975;SDS011;7584;60.468;25.126;2023-01-19T08:47:00;3.50;;;1.13;;
14975;SDS011;7584;60.468;25.126;2023-01-19T08:49:25;3.03;;;1.03;;
14975;SDS011;7584;60.468;25.126;2023-01-19T08:51:51;1.80;;;1.10;;
14975;SDS011;7584;60.468;25.126;2023-01-19T08:54:16;4.40;;;1.10;;
14975;SDS011;7584;60.468;25.126;2023-01-19T08:56:41;1.50;;;1.20;;
14975;SDS011;7584;60.468;25.126;2023-01-19T08:59:07;2.27;;;1.07;;
14975;SDS011;7584;60.468;25.126;2023-01-19T09:01:32;2.53;;;1.20;;
14975;SDS011;7584;60.468;25.126;2023-01-19T09:03:57;2.50;;;1.30;;
14975;SDS011;7584;60.468;25.126;2023-01-19T09:06:23;3.03;;;1.30;;
14975;SDS011;7584;60.468;25.126;2023-01-19T09:08:49;1.70;;;1.33;;
14975;SDS011;7584;60.468;25.126;2023-01-19T09:11:14;3.70;;;1.50;;
14975;SDS011;7584;60.468;25.126;2023-01-19T09:13:41;2.20;;;1.27;;
14975;SDS011;7584;60.468;25.126;2023-01-19T09:16:07;1.10;;;1.00;;
14975;SDS011;7584;60.468;25.126;2023-01-19T09:18:32;6.00;;;1.53;;
14975;SDS011;7584;60.468;25.126;2023-01-19T09:20:58;1.80;;;1.30;;
14975;SDS011;7584;60.468;25.126;2023-01-19T09:23:23;1.07;;;0.80;;
14975;SDS011;7584;60.468;25.126;2023-01-19T09:25:54;1.20;;;1.10;;
14975;SDS011;7584;60.468;25.126;2023-01-19T09:28:19;2.00;;;1.00;;
14975;SDS011;7584;60.468;25.126;2023-01-19T09:30:45;4.50;;;1.10;;
14975;SDS011;7584;60.468;25.126;2023-01-19T09:33:11;2.60;;;1.30;;
14975;SDS011;7584;60.468;25.126;2023-01-19T09:35:38;3.27;;;1.30;;
14975;SDS011;7584;60.468;25.126;2023-01-19T09:38:04;3.17;;;1.27;;
14975;SDS011;7584;60.468;25.126;2023-01-19T09:40:31;1.83;;;1.30;;
14975;SDS011;7584;60.468;25.126;2023-01-19T09:43:58;2.10;;;1.43;;
14975;SDS011;7584;60.468;25.126;2023-01-19T09:45:55;4.00;;;1.50;;
14975;SDS011;7584;60.468;25.126;2023-01-19T09:50:50;2.40;;;1.67;;
14975;SDS011;7584;60.468;25.126;2023-01-19T09:53:18;3.43;;;1.87;;
14975;SDS011;7584;60.468;25.126;2023-01-19T09:55:45;3.47;;;2.20;;
14975;SDS011;7584;60.468;25.126;2023-01-19T09:58:14;3.20;;;2.20;;
14975;SDS011;7584;60.468;25.126;2023-01-19T10:00:46;5.93;;;2.23;;
14975;SDS011;7584;60.468;25.126;2023-01-19T10:03:15;2.67;;;2.43;;
14975;SDS011;7584;60.468;25.126;2023-01-19T10:05:42;2.63;;;2.37;;
14975;SDS011;7584;60.468;25.126;2023-01-19T10:10:53;5.30;;;2.97;;
14975;SDS011;7584;60.468;25.126;2023-01-19T10:20:49;4.90;;;3.50;;
14975;SDS011;7584;60.468;25.126;2023-01-19T10:23:17;4.00;;;3.03;;
14975;SDS011;7584;60.468;25.126;2023-01-19T10:25:44;3.53;;;3.00;;
14975;SDS011;7584;60.468;25.126;2023-01-19T10:28:10;5.27;;;3.57;;
14975;SDS011;7584;60.468;25.126;2023-01-19T10:30:37;5.43;;;3.60;;
14975;SDS011;7584;60.468;25.126;2023-01-19T10:33:06;7.50;;;3.93;;
14975;SDS011;7584;60.468;25.126;2023-01-19T10:35:31;5.90;;;3.07;;
14975;SDS011;7584;60.468;25.126;2023-01-19T10:37:57;8.20;;;4.37;;
14975;SDS011;7584;60.468;25.126;2023-01-19T10:40:38;5.37;;;3.70;;
14975;SDS011;7584;60.468;25.126;2023-01-19T10:46:29;5.40;;;4.20;;
14975;SDS011;7584;60.468;25.126;2023-01-19T10:51:54;5.73;;;3.90;;
14975;SDS011;7584;60.468;25.126;2023-01-19T10:54:20;7.00;;;3.70;;
14975;SDS011;7584;60.468;25.126;2023-01-19T10:56:49;6.50;;;3.70;;
14975;SDS011;7584;60.468;25.126;2023-01-19T10:59:32;4.30;;;3.43;;
14975;SDS011;7584;60.468;25.126;2023-01-19T11:02:02;4.17;;;3.17;;
14975;SDS011;7584;60.468;25.126;2023-01-19T11:04:28;3.77;;;2.87;;
14975;SDS011;7584;60.468;25.126;2023-01-19T11:07:04;4.53;;;3.03;;
14975;SDS011;7584;60.468;25.126;2023-01-19T11:09:36;4.60;;;3.53;;
14975;SDS011;7584;60.468;25.126;2023-01-19T11:12:01;5.23;;;3.37;;
14975;SDS011;7584;60.468;25.126;2023-01-19T11:14:27;4.13;;;3.33;;
14975;SDS011;7584;60.468;25.126;2023-01-19T11:16:54;4.67;;;3.30;;
14975;SDS011;7584;60.468;25.126;2023-01-19T11:19:23;4.07;;;3.20;;
14975;SDS011;7584;60.468;25.126;2023-01-19T11:21:49;4.93;;;3.80;;
14975;SDS011;7584;60.468;25.126;2023-01-19T11:24:14;8.40;;;3.57;;
14975;SDS011;7584;60.468;25.126;2023-01-19T11:26:41;5.03;;;3.83;;
14975;SDS011;7584;60.468;25.126;2023-01-19T11:29:21;4.60;;;3.50;;
14975;SDS011;7584;60.468;25.126;2023-01-19T11:31:48;4.70;;;3.87;;
14975;SDS011;7584;60.468;25.126;2023-01-19T11:37:03;6.30;;;3.80;;
14975;SDS011;7584;60.468;25.126;2023-01-19T11:39:29;5.90;;;3.63;;
14975;SDS011;7584;60.468;25.126;2023-01-19T11:41:59;5.17;;;4.10;;
14975;SDS011;7584;60.468;25.126;2023-01-19T11:46:55;4.63;;;3.40;;
14975;SDS011;7584;60.468;25.126;2023-01-19T11:54:18;4.70;;;3.50;;
14975;SDS011;7584;60.468;25.126;2023-01-19T11:56:46;4.70;;;3.30;;
14975;SDS011;7584;60.468;25.126;2023-01-19T11:59:12;3.97;;;3.40;;
14975;SDS011;7584;60.468;25.126;2023-01-19T12:01:39;4.33;;;3.33;;
14975;SDS011;7584;60.468;25.126;2023-01-19T12:04:10;4.40;;;3.20;;
14975;SDS011;7584;60.468;25.126;2023-01-19T12:06:48;4.53;;;3.10;;
14975;SDS011;7584;60.468;25.126;2023-01-19T12:09:16;4.40;;;3.67;;
14975;SDS011;7584;60.468;25.126;2023-01-19T12:11:44;4.90;;;3.60;;
14975;SDS011;7584;60.468;25.126;2023-01-19T12:14:16;5.17;;;3.73;;
14975;SDS011;7584;60.468;25.126;2023-01-19T12:16:43;6.03;;;4.30;;
14975;SDS011;7584;60.468;25.126;2023-01-19T12:19:11;5.77;;;4.20;;
14975;SDS011;7584;60.468;25.126;2023-01-19T12:21:38;6.57;;;4.63;;
14975;SDS011;7584;60.468;25.126;2023-01-19T12:24:25;7.17;;;5.17;;
14975;SDS011;7584;60.468;25.126;2023-01-19T12:26:58;6.97;;;4.83;;
14975;SDS011;7584;60.468;25.126;2023-01-19T12:29:25;6.17;;;4.63;;
14975;SDS011;7584;60.468;25.126;2023-01-19T12:34:39;7.43;;;4.90;;
14975;SDS011;7584;60.468;25.126;2023-01-19T12:37:05;5.67;;;4.37;;
14975;SDS011;7584;60.468;25.126;2023-01-19T12:39:31;7.00;;;5.10;;
14975;SDS011;7584;60.468;25.126;2023-01-19T12:42:10;5.83;;;4.40;;
14975;SDS011;7584;60.468;25.126;2023-01-19T12:44:37;6.93;;;4.63;;
14975;SDS011;7584;60.468;25.126;2023-01-19T12:54:57;6.00;;;4.27;;
14975;SDS011;7584;60.468;25.126;2023-01-19T12:57:28;8.17;;;4.47;;
14975;SDS011;7584;60.468;25.126;2023-01-19T12:59:56;8.27;;;4.50;;
14975;SDS011;7584;60.468;25.126;2023-01-19T13:05:08;6.60;;;4.60;;
14975;SDS011;7584;60.468;25.126;2023-01-19T13:13:13;6.00;;;4.40;;
14975;SDS011;7584;60.468;25.126;2023-01-19T13:15:40;9.50;;;5.63;;
14975;SDS011;7584;60.468;25.126;2023-01-19T13:18:06;6.03;;;4.57;;
14975;SDS011;7584;60.468;25.126;2023-01-19T13:21:14;6.77;;;4.53;;
14975;SDS011;7584;60.468;25.126;2023-01-19T13:25:47;8.93;;;5.60;;
14975;SDS011;7584;60.468;25.126;2023-01-19T13:28:13;8.90;;;5.87;;
14975;SDS011;7584;60.468;25.126;2023-01-19T13:30:43;9.60;;;6.27;;
14975;SDS011;7584;60.468;25.126;2023-01-19T13:33:16;9.70;;;6.03;;
14975;SDS011;7584;60.468;25.126;2023-01-19T13:36:01;12.53;;;6.73;;
14975;SDS011;7584;60.468;25.126;2023-01-19T13:38:27;10.10;;;6.97;;
14975;SDS011;7584;60.468;25.126;2023-01-19T13:40:53;10.73;;;7.40;;
14975;SDS011;7584;60.468;25.126;2023-01-19T13:43:21;10.50;;;7.00;;
14975;SDS011;7584;60.468;25.126;2023-01-19T13:45:48;9.77;;;6.43;;
14975;SDS011;7584;60.468;25.126;2023-01-19T13:48:16;11.93;;;7.53;;
14975;SDS011;7584;60.468;25.126;2023-01-19T13:50:41;12.10;;;8.30;;
14975;SDS011;7584;60.468;25.126;2023-01-19T13:53:16;10.57;;;6.90;;
14975;SDS011;7584;60.468;25.126;2023-01-19T13:55:42;14.53;;;8.33;;
14975;SDS011;7584;60.468;25.126;2023-01-19T13:58:18;11.70;;;7.70;;
14975;SDS011;7584;60.468;25.126;2023-01-19T14:00:44;8.33;;;5.37;;
14975;SDS011;7584;60.468;25.126;2023-01-19T14:03:15;10.20;;;6.57;;
14975;SDS011;7584;60.468;25.126;2023-01-19T14:05:42;8.93;;;6.30;;
14975;SDS011;7584;60.468;25.126;2023-01-19T14:13:03;9.67;;;6.17;;
14975;SDS011;7584;60.468;25.126;2023-01-19T14:15:30;9.33;;;5.63;;
14975;SDS011;7584;60.468;25.126;2023-01-19T14:18:09;7.47;;;5.47;;
14975;SDS011;7584;60.468;25.126;2023-01-19T14:20:35;7.70;;;5.73;;
14975;SDS011;7584;60.468;25.126;2023-01-19T14:23:01;7.93;;;5.67;;
14975;SDS011;7584;60.468;25.126;2023-01-19T14:25:33;9.27;;;5.23;;
14975;SDS011;7584;60.468;25.126;2023-01-19T14:33:44;8.37;;;5.07;;
14975;SDS011;7584;60.468;25.126;2023-01-19T14:38:48;8.70;;;5.17;;
14975;SDS011;7584;60.468;25.126;2023-01-19T14:43:48;8.10;;;5.37;;
14975;SDS011;7584;60.468;25.126;2023-01-19T14:46:15;8.83;;;6.50;;
14975;SDS011;7584;60.468;25.126;2023-01-19T14:48:44;7.97;;;5.53;;
14975;SDS011;7584;60.468;25.126;2023-01-19T14:51:11;9.50;;;6.63;;
14975;SDS011;7584;60.468;25.126;2023-01-19T14:53:39;10.70;;;5.97;;
14975;SDS011;7584;60.468;25.126;2023-01-19T14:56:10;7.43;;;5.27;;
14975;SDS011;7584;60.468;25.126;2023-01-19T14:58:35;8.50;;;5.33;;
14975;SDS011;7584;60.468;25.126;2023-01-19T15:01:01;8.23;;;5.13;;
14975;SDS011;7584;60.468;25.126;2023-01-19T15:03:26;9.00;;;5.90;;
14975;SDS011;7584;60.468;25.126;2023-01-19T15:05:55;9.20;;;4.97;;
14975;SDS011;7584;60.468;25.126;2023-01-19T15:08:26;10.00;;;4.70;;
14975;SDS011;7584;60.468;25.126;2023-01-19T15:10:51;11.47;;;4.77;;
14975;SDS011;7584;60.468;25.126;2023-01-19T15:13:17;7.87;;;4.73;;
14975;SDS011;7584;60.468;25.126;2023-01-19T15:15:43;8.33;;;4.53;;
14975;SDS011;7584;60.468;25.126;2023-01-19T15:18:10;7.40;;;4.50;;
14975;SDS011;7584;60.468;25.126;2023-01-19T15:20:37;7.30;;;5.13;;
14975;SDS011;7584;60.468;25.126;2023-01-19T15:23:02;11.03;;;4.87;;
14975;SDS011;7584;60.468;25.126;2023-01-19T15:25:28;8.17;;;4.07;;
14975;SDS011;7584;60.468;25.126;2023-01-19T15:27:58;9.00;;;4.40;;
14975;SDS011;7584;60.468;25.126;2023-01-19T15:30:24;6.77;;;4.33;;
14975;SDS011;7584;60.468;25.126;2023-01-19T15:32:52;7.00;;;4.23;;
14975;SDS011;7584;60.468;25.126;2023-01-19T15:35:21;7.20;;;5.20;;
14975;SDS011;7584;60.468;25.126;2023-01-19T15:37:47;8.63;;;5.00;;
14975;SDS011;7584;60.468;25.126;2023-01-19T15:40:13;8.07;;;5.17;;
14975;SDS011;7584;60.468;25.126;2023-01-19T15:42:38;12.57;;;5.53;;
14975;SDS011;7584;60.468;25.126;2023-01-19T15:47:47;6.23;;;3.93;;
14975;SDS011;7584;60.468;25.126;2023-01-19T15:50:13;7.30;;;4.10;;
14975;SDS011;7584;60.468;25.126;2023-01-19T15:52:38;8.47;;;5.00;;
14975;SDS011;7584;60.468;25.126;2023-01-19T15:55:03;8.43;;;4.17;;
14975;SDS011;7584;60.468;25.126;2023-01-19T15:57:29;8.07;;;4.20;;
14975;SDS011;7584;60.468;25.126;2023-01-19T15:59:54;9.67;;;4.33;;
14975;SDS011;7584;60.468;25.126;2023-01-19T16:02:19;11.83;;;4.20;;
14975;SDS011;7584;60.468;25.126;2023-01-19T16:04:47;6.50;;;3.80;;
14975;SDS011;7584;60.468;25.126;2023-01-19T16:07:13;11.00;;;3.97;;
14975;SDS011;7584;60.468;25.126;2023-01-19T16:09:38;8.33;;;4.00;;
14975;SDS011;7584;60.468;25.126;2023-01-19T16:12:04;7.83;;;4.93;;
14975;SDS011;7584;60.468;25.126;2023-01-19T16:14:29;6.13;;;3.87;;